Time;durP1;ratioP1;P1;durP2;ratioP2;P2;SDS_P1;SDS_P2;PMS_P1;PMS_P2;Temp;Humidity;BMP_temperature;BMP_pressure;BME280_temperature;BME280_humidity;BME280_pressure;Samples;Min_cycle;Max_cycle;Signal;HPM_P1;HPM_P2
2023/09/10 00:03:14;;;;;;;3.93;2.53;;;;;;;21.91;62.12;96845.81;10418638;28;20033;-25
2023/09/10 00:08:15;;;;;;;4.10;1.73;;;;;;;21.91;62.17;96836.44;10420110;28;20292;-26
2023/09/10 00:13:15;;;;;;;3.53;2.73;;;;;;;21.89;62.07;96840.72;10413906;28;20033;-26
2023/09/10 00:18:15;;;;;;;2.60;2.17;;;;;;;21.91;61.95;96841.53;10407102;28;20124;-26
2023/09/10 00:23:16;;;;;;;3.80;2.50;;;;;;;21.92;62.04;96845.78;10424723;28;20037;-25
2023/09/10 00:28:16;;;;;;;3.92;3.20;;;;;;;21.92;62.08;96845.78;10417257;28;20036;-25
2023/09/10 00:33:17;;;;;;;3.27;2.97;;;;;;;21.91;62.00;96844.06;10421151;28;20041;-26
2023/09/10 00:38:18;;;;;;;4.78;3.20;;;;;;;21.92;61.88;96845.78;10421176;28;20371;-26
2023/09/10 00:43:18;;;;;;;4.82;3.53;;;;;;;21.94;61.99;96840.66;10411385;28;20526;-25
2023/09/10 00:48:19;;;;;;;14.07;5.00;;;;;;;21.93;62.03;96841.53;10416351;28;20029;-25
2023/09/10 00:53:21;;;;;;;5.68;4.93;;;;;;;21.96;61.98;96841.47;10435551;28;20037;-26
2023/09/10 00:58:21;;;;;;;8.82;4.10;;;;;;;21.97;62.04;96836.38;10438429;28;20029;-26
2023/09/10 01:03:23;;;;;;;7.32;5.65;;;;;;;21.98;61.87;96839.78;10441554;28;20055;-26
2023/09/10 01:08:24;;;;;;;5.93;5.32;;;;;;;21.95;62.09;96835.56;10430724;28;20292;-25
2023/09/10 01:13:38;;;;;;;6.72;5.22;;;;;;;21.94;62.00;96831.31;10430034;28;20479;-25
2023/09/10 01:18:45;;;;;;;8.65;5.13;;;;;;;21.94;61.88;96833.88;10433499;28;20065;-26
2023/09/10 01:24:19;;;;;;;6.40;5.07;;;;;;;21.98;62.06;96834.69;10430661;28;20124;-25
2023/09/10 01:29:19;;;;;;;7.07;4.40;;;;;;;21.95;61.75;96838.09;10444929;28;20043;-26
2023/09/10 01:34:27;;;;;;;5.93;3.30;;;;;;;21.92;62.00;96833.03;10413957;28;20510;-26
2023/09/10 01:39:37;;;;;;;6.22;5.18;;;;;;;21.96;61.99;96837.22;10420902;28;20083;-25
2023/09/10 01:44:39;;;;;;;5.65;3.95;;;;;;;21.94;61.87;96833.00;10410366;28;20029;-26
2023/09/10 01:49:39;;;;;;;6.30;3.33;;;;;;;21.92;62.03;96825.41;10424738;28;20123;-26
2023/09/10 01:54:40;;;;;;;5.15;4.60;;;;;;;21.93;61.98;96829.63;10424057;28;20506;-26
2023/09/10 01:59:41;;;;;;;4.55;4.15;;;;;;;21.92;61.84;96827.94;10419638;28;20447;-26
2023/09/10 02:04:41;;;;;;;5.03;2.15;;;;;;;21.95;61.72;96822.81;10431288;28;20033;-26
2023/09/10 02:09:42;;;;;;;7.70;4.37;;;;;;;21.94;61.79;96823.66;10414649;28;20042;-26
2023/09/10 02:14:48;;;;;;;8.15;3.78;;;;;;;21.93;61.91;96816.88;10425683;28;20044;-26
2023/09/10 02:19:48;;;;;;;4.83;3.73;;;;;;;21.94;61.89;96812.63;10439238;28;20482;-26
2023/09/10 02:24:50;;;;;;;4.23;3.30;;;;;;;21.94;61.68;96822.81;10413907;28;20052;-25
2023/09/10 02:29:51;;;;;;;6.45;4.35;;;;;;;21.93;61.54;96816.88;10440417;28;20037;-25
2023/09/10 02:34:54;;;;;;;4.83;4.20;;;;;;;21.93;61.70;96811.78;10415379;28;20450;-25
2023/09/10 02:39:54;;;;;;;9.27;6.38;;;;;;;21.94;61.95;96822.81;10420964;28;20033;-25
2023/09/10 02:44:54;;;;;;;5.70;4.33;;;;;;;21.94;61.83;96828.78;10424092;28;20044;-26
2023/09/10 02:49:55;;;;;;;7.83;4.47;;;;;;;21.94;61.75;96826.22;10424650;28;20037;-26
2023/09/10 02:54:55;;;;;;;10.20;5.53;;;;;;;21.93;61.85;96824.53;10429514;28;20299;-26
2023/09/10 02:59:56;;;;;;;7.15;4.55;;;;;;;21.95;61.77;96830.44;10431417;28;20073;-25
2023/09/10 03:04:57;;;;;;;7.30;5.40;;;;;;;21.96;62.02;96832.13;10430011;28;20041;-26
2023/09/10 03:09:57;;;;;;;5.20;4.80;;;;;;;21.97;61.62;96838.09;10422778;28;20047;-26
2023/09/10 03:14:57;;;;;;;5.32;3.53;;;;;;;21.97;61.62;96844.03;10427266;28;20037;-26
2023/09/10 03:20:00;;;;;;;7.28;5.03;;;;;;;21.97;61.59;96851.66;10411186;28;20029;-26
2023/09/10 03:25:00;;;;;;;6.90;5.28;;;;;;;21.98;62.33;96848.25;10417620;28;20034;-26
2023/09/10 03:30:05;;;;;;;6.57;5.23;;;;;;;21.98;61.78;96847.44;10412945;28;20026;-26
2023/09/10 03:35:06;;;;;;;5.57;4.97;;;;;;;21.97;61.70;96851.66;10412490;28;20367;-26
2023/09/10 03:40:07;;;;;;;8.50;5.65;;;;;;;21.99;61.80;96855.03;10435029;28;20510;-26
2023/09/10 03:45:08;;;;;;;8.70;5.40;;;;;;;21.95;62.01;96843.19;10427665;28;20040;-26
2023/09/10 03:50:11;;;;;;;7.05;5.85;;;;;;;22.01;62.18;96847.38;10429924;28;20040;-25
2023/09/10 03:55:11;;;;;;;6.43;4.78;;;;;;;22.03;61.90;96854.16;10418441;28;20057;-25
2023/09/10 04:00:12;;;;;;;7.47;4.95;;;;;;;22.04;62.78;96854.97;10423610;28;20471;-26
2023/09/10 04:05:14;;;;;;;6.53;5.18;;;;;;;22.01;61.64;96853.34;10414343;28;20025;-26
2023/09/10 04:10:14;;;;;;;5.47;4.97;;;;;;;21.97;61.73;96849.13;10419852;28;20033;-25
2023/09/10 04:15:15;;;;;;;5.67;5.17;;;;;;;21.97;61.75;96844.03;10422421;28;20033;-25
2023/09/10 04:20:15;;;;;;;5.57;4.67;;;;;;;21.98;61.66;96855.91;10427680;28;20461;-25
2023/09/10 04:25:15;;;;;;;5.97;4.70;;;;;;;21.98;61.80;96850.81;10423642;28;20061;-26
2023/09/10 04:30:16;;;;;;;7.80;4.95;;;;;;;21.97;61.59;96859.31;10420903;28;20302;-26
2023/09/10 04:35:17;;;;;;;7.22;4.80;;;;;;;21.94;61.67;96859.38;10423324;28;20037;-26
2023/09/10 04:40:17;;;;;;;5.45;4.88;;;;;;;21.93;61.67;96857.69;10423024;28;20022;-25
2023/09/10 04:45:18;;;;;;;5.78;4.85;;;;;;;21.94;61.66;96856.81;10416782;28;20479;-26
2023/09/10 04:50:18;;;;;;;7.50;4.50;;;;;;;21.96;61.55;96865.28;10432840;28;20079;-26
2023/09/10 04:55:19;;;;;;;5.22;4.07;;;;;;;21.95;61.52;96861.03;10430135;28;20117;-26
2023/09/10 05:00:19;;;;;;;4.60;4.20;;;;;;;21.92;61.62;96868.75;10417092;28;20079;-25
2023/09/10 05:05:20;;;;;;;5.43;4.40;;;;;;;21.93;61.60;96867.88;10440564;28;20037;-26
2023/09/10 05:10:21;;;;;;;5.47;4.73;;;;;;;21.94;61.60;96874.66;10435351;28;20048;-26
2023/09/10 05:15:22;;;;;;;5.67;4.03;;;;;;;21.92;61.50;96871.28;10422944;28;20292;-26
2023/09/10 05:20:22;;;;;;;4.40;4.00;;;;;;;21.93;61.53;96877.22;10441439;28;20669;-26
2023/09/10 05:25:23;;;;;;;4.80;4.32;;;;;;;21.95;61.40;96881.44;10412833;28;20041;-26
2023/09/10 05:30:24;;;;;;;4.50;4.10;;;;;;;21.92;61.52;96881.50;10424750;28;20124;-26
2023/09/10 05:35:24;;;;;;;4.80;4.17;;;;;;;21.98;61.47;96886.50;10431385;28;20029;-25
2023/09/10 05:40:25;;;;;;;5.53;4.50;;;;;;;21.94;61.46;96878.91;10430670;28;20051;-25
2023/09/10 05:45:26;;;;;;;5.03;4.63;;;;;;;21.94;61.54;96877.22;10418469;28;20783;-25
2023/09/10 05:50:27;;;;;;;5.00;4.57;;;;;;;21.93;61.40;96888.28;10428529;28;20040;-26
2023/09/10 05:55:28;;;;;;;4.50;3.90;;;;;;;21.93;61.33;96883.16;10420438;28;20030;-25
2023/09/10 06:00:29;;;;;;;5.17;4.30;;;;;;;21.92;61.38;96880.63;10421103;28;20051;-26
2023/09/10 06:05:30;;;;;;;3.85;3.40;;;;;;;21.93;61.61;96877.22;10420237;28;20025;-26
2023/09/10 06:10:30;;;;;;;4.53;4.05;;;;;;;21.94;61.32;96882.31;10419524;28;20037;-26
2023/09/10 06:15:31;;;;;;;6.53;4.60;;;;;;;21.92;61.27;96881.50;10433576;28;20506;-25
2023/09/10 06:20:31;;;;;;;6.85;4.55;;;;;;;21.92;61.26;96886.59;10440022;28;20142;-25
2023/09/10 06:25:33;;;;;;;5.88;5.28;;;;;;;22.09;64.13;96889.78;10434872;28;20037;-26
2023/09/10 06:30:34;;;;;;;8.50;5.30;;;;;;;22.09;62.72;96899.13;10430124;28;20044;-25
2023/09/10 06:35:35;;;;;;;7.60;5.38;;;;;;;22.17;62.19;96897.34;10428444;28;20045;-25
2023/09/10 06:40:36;;;;;;;6.43;4.78;;;;;;;22.05;62.48;96903.41;10418096;28;20434;-26
2023/09/10 06:45:38;;;;;;;5.70;5.03;;;;;;;22.08;62.38;96895.72;10429868;28;20034;-26
2023/09/10 06:50:38;;;;;;;10.35;6.28;;;;;;;22.10;62.99;96906.78;10424514;28;20049;-25
2023/09/10 06:55:39;;;;;;;6.23;5.33;;;;;;;22.07;62.82;96911.88;10420316;28;20438;-27
2023/09/10 07:00:39;;;;;;;6.07;4.80;;;;;;;22.15;62.76;96910.09;10414901;28;20044;-26
2023/09/10 07:05:41;;;;;;;7.73;4.83;;;;;;;22.13;62.66;96913.56;10419013;28;20087;-27
2023/09/10 07:10:41;;;;;;;8.15;6.20;;;;;;;22.10;63.07;96903.38;10420554;28;20437;-26
2023/09/10 07:15:41;;;;;;;5.93;5.40;;;;;;;22.14;63.17;96905.88;10408609;28;20053;-26
2023/09/10 07:20:44;;;;;;;5.43;4.93;;;;;;;22.11;62.84;96898.25;10431956;28;20521;-25
2023/09/10 07:25:44;;;;;;;5.30;4.63;;;;;;;22.12;62.86;96907.59;10414876;28;20033;-26
2023/09/10 07:30:44;;;;;;;7.63;4.90;;;;;;;22.05;62.89;96902.59;10427421;28;20032;-25
2023/09/10 07:35:45;;;;;;;6.03;4.60;;;;;;;22.00;62.56;96910.28;10417662;28;20052;-26
2023/09/10 07:40:45;;;;;;;7.03;5.27;;;;;;;21.98;62.51;96904.34;10415432;28;20407;-26
2023/09/10 07:45:45;;;;;;;4.83;3.60;;;;;;;21.97;62.30;96902.66;10423331;28;20412;-27
2023/09/10 07:50:54;;;;;;;6.40;4.40;;;;;;;21.96;62.04;96913.72;10416129;28;20037;-25
2023/09/10 07:55:56;;;;;;;8.73;5.40;;;;;;;21.97;62.83;96925.59;10419788;28;20483;-26
2023/09/10 08:00:57;;;;;;;6.93;4.38;;;;;;;21.97;62.16;96919.69;10411328;28;20483;-27
2023/09/10 08:05:57;;;;;;;8.00;6.30;;;;;;;22.00;62.22;96911.97;10414902;28;20048;-26
2023/09/10 08:10:58;;;;;;;7.15;6.43;;;;;;;21.97;61.94;96910.31;10414484;28;20041;-25
2023/09/10 08:15:58;;;;;;;6.67;4.57;;;;;;;21.97;63.33;96906.94;10425642;28;20483;-25
2023/09/10 08:20:58;;;;;;;11.37;7.40;;;;;;;21.96;61.96;96913.72;10422880;28;20029;-25
2023/09/10 08:25:59;;;;;;;7.70;6.63;;;;;;;21.94;61.82;96915.44;10422639;28;20118;-26
2023/09/10 08:30:59;;;;;;;10.10;6.77;;;;;;;21.95;61.83;96911.19;10426054;28;20082;-26
2023/09/10 08:35:59;;;;;;;6.77;5.50;;;;;;;21.94;61.96;96915.44;10420965;28;20044;-26
2023/09/10 08:41:00;;;;;;;11.13;6.97;;;;;;;21.93;61.82;96908.66;10415313;28;20112;-26
2023/09/10 08:46:01;;;;;;;6.50;5.85;;;;;;;21.93;62.10;96911.22;10432224;28;20753;-26
2023/09/10 08:51:02;;;;;;;9.43;5.45;;;;;;;21.94;61.77;96915.44;10420731;28;20030;-25
2023/09/10 08:56:04;;;;;;;11.40;6.65;;;;;;;21.93;61.86;96906.13;10417819;28;20532;-26
2023/09/10 09:01:07;;;;;;;10.75;6.97;;;;;;;21.93;61.75;96906.13;10434333;28;20029;-26
2023/09/10 09:06:08;;;;;;;9.63;7.60;;;;;;;21.94;62.02;96910.34;10426263;28;20041;-25
2023/09/10 09:11:12;;;;;;;7.68;5.72;;;;;;;21.94;61.80;96904.38;10427946;28;20082;-25
2023/09/10 09:16:14;;;;;;;10.10;7.10;;;;;;;21.93;61.69;96898.47;10429330;28;20021;-25
2023/09/10 09:21:20;;;;;;;10.75;7.25;;;;;;;21.99;62.60;96907.75;10429415;28;20029;-26
2023/09/10 09:26:21;;;;;;;7.85;5.97;;;;;;;21.93;61.58;96892.50;10412398;28;20044;-25
2023/09/10 09:31:22;;;;;;;21.92;7.93;;;;;;;21.92;61.61;96886.59;10422225;28;20529;-26
2023/09/10 09:36:28;;;;;;;11.68;6.53;;;;;;;21.96;61.93;96893.31;10421655;28;20025;-26
2023/09/10 09:41:28;;;;;;;12.48;4.22;;;;;;;21.94;61.89;96895.06;10424477;28;20036;-26
2023/09/10 09:46:32;;;;;;;14.83;4.07;;;;;;;21.91;62.76;96884.88;10433540;28;20037;-26
2023/09/10 09:51:33;;;;;;;7.90;4.65;;;;;;;21.95;61.99;96889.09;10432229;28;20041;-26
2023/09/10 09:56:36;;;;;;;6.32;3.08;;;;;;;21.87;62.91;96884.91;10411724;28;20037;-26
2023/09/10 10:01:39;;;;;;;9.90;5.05;;;;;;;21.99;64.96;96877.97;10419379;28;20041;-27
2023/09/10 10:06:39;;;;;;;10.02;4.13;;;;;;;22.01;62.93;96875.44;10425040;28;20483;-26
2023/09/10 10:11:41;;;;;;;7.80;3.03;;;;;;;22.05;63.01;96867.72;10410682;28;20039;-26
2023/09/10 10:16:41;;;;;;;6.78;3.72;;;;;;;22.05;62.58;96865.16;10410157;28;20036;-25
2023/09/10 10:21:42;;;;;;;8.70;5.43;;;;;;;22.10;64.73;96857.47;10421026;28;20029;-26
2023/09/10 10:26:44;;;;;;;7.55;3.20;;;;;;;22.08;62.70;96852.38;10435116;28;20299;-26
2023/09/10 10:31:48;;;;;;;5.55;3.45;;;;;;;22.06;62.34;96853.28;10423560;28;20643;-26
2023/09/10 10:37:32;;;;;;;5.38;3.78;;;;;;;22.07;62.44;96845.59;10433186;28;20025;-26
2023/09/10 10:42:40;;;;;;;9.27;5.20;;;;;;;22.08;62.72;96847.28;10364224;28;20044;-25
2023/09/10 10:47:42;;;;;;;6.72;4.65;;;;;;;22.10;62.62;96834.50;10428633;28;20079;-26
2023/09/10 10:52:51;;;;;;;5.22;3.33;;;;;;;22.09;62.46;96828.59;10415940;28;20044;-27
2023/09/10 10:57:53;;;;;;;4.15;2.88;;;;;;;22.06;62.76;96828.59;10451214;28;20082;-25
2023/09/10 11:03:14;;;;;;;5.03;3.92;;;;;;;22.09;62.74;96831.13;10433260;28;20040;-26
2023/09/10 11:08:43;;;;;;;4.03;3.63;;;;;;;22.09;63.02;96822.63;10427919;28;20026;-25
2023/09/10 11:14:08;;;;;;;8.45;4.60;;;;;;;22.09;63.59;96826.03;10427735;28;20384;-26
2023/09/10 11:19:44;;;;;;;4.60;3.70;;;;;;;22.16;64.90;96825.06;10431368;28;20024;-26
2023/09/10 11:24:59;;;;;;;10.15;5.22;;;;;;;22.15;64.17;96818.28;10417828;28;20049;-26
2023/09/10 11:30:12;;;;;;;12.45;5.18;;;;;;;22.15;63.29;96817.47;10419892;28;20115;-26
2023/09/10 11:35:18;;;;;;;12.57;4.75;;;;;;;22.16;64.16;96814.88;10412621;28;20037;-26
2023/09/10 11:40:19;;;;;;;;;;;;;;;22.18;66.11;96810.63;10408120;28;20029;-26
2023/09/10 11:45:19;;;;;;;15.77;5.07;;;;;;;22.14;64.87;96806.41;10412189;28;19913;-25
2023/09/10 11:50:23;;;;;;;21.88;6.38;;;;;;;22.06;65.02;96810.75;10419791;28;20045;-25
2023/09/10 11:55:23;;;;;;;15.07;5.00;;;;;;;22.11;64.11;96809.00;10421160;28;20032;-26
2023/09/10 12:00:24;;;;;;;12.20;4.22;;;;;;;22.11;64.15;96803.91;10425570;28;20021;-26
2023/09/10 12:05:25;;;;;;;10.85;3.83;;;;;;;22.12;63.91;96802.19;10418245;28;20083;-26
2023/09/10 12:10:26;;;;;;;13.20;4.03;;;;;;;22.12;63.93;96808.13;10433995;28;20029;-26
2023/09/10 12:15:28;;;;;;;13.27;4.38;;;;;;;22.12;63.89;96807.28;10429795;28;20111;-26
2023/09/10 12:20:28;;;;;;;10.55;4.28;;;;;;;22.11;63.83;96796.25;10424178;28;20017;-26
2023/09/10 12:25:28;;;;;;;9.77;4.30;;;;;;;22.13;63.79;96794.53;10426353;28;20044;-26
2023/09/10 12:30:29;;;;;;;8.68;4.03;;;;;;;22.12;63.60;96797.94;10431559;28;20701;-26
2023/09/10 12:35:30;;;;;;;6.43;3.80;;;;;;;22.13;63.66;96799.63;10421883;28;20040;-26
2023/09/10 12:40:30;;;;;;;7.22;3.53;;;;;;;22.13;63.91;96799.63;10437240;28;20036;-25
2023/09/10 12:45:31;;;;;;;7.70;4.10;;;;;;;22.14;63.24;96800.47;10434880;28;20033;-26
2023/09/10 12:50:31;;;;;;;7.47;4.57;;;;;;;22.14;63.66;96796.19;10426737;28;20056;-26
2023/09/10 12:55:32;;;;;;;6.65;3.85;;;;;;;22.13;63.57;96791.97;10416353;28;20041;-25
2023/09/10 13:00:32;;;;;;;7.53;4.75;;;;;;;22.14;63.66;96787.72;10424301;28;20033;-26
2023/09/10 13:05:33;;;;;;;7.93;4.70;;;;;;;22.12;63.79;96777.53;10422670;28;20487;-25
2023/09/10 13:10:33;;;;;;;9.48;5.25;;;;;;;22.12;64.02;96777.53;10421796;28;20032;-26
2023/09/10 13:15:34;;;;;;;13.90;7.80;;;;;;;22.15;64.88;96774.09;10421543;28;20037;-26
2023/09/10 13:20:34;;;;;;;22.27;8.07;;;;;;;22.23;66.72;96770.56;10430353;28;20107;-26
2023/09/10 13:25:34;;;;;;;23.47;8.03;;;;;;;22.14;64.53;96765.59;10412623;28;20037;-26
2023/09/10 13:30:37;;;;;;;25.20;7.87;;;;;;;22.16;64.19;96770.69;10421246;28;20778;-25
2023/09/10 13:35:39;;;;;;;21.25;8.68;;;;;;;22.20;66.83;96764.66;10412358;28;20324;-26
2023/09/10 13:40:41;;;;;;;25.42;8.43;;;;;;;22.16;64.05;96768.97;10426331;28;20465;-26
2023/09/10 13:45:41;;;;;;;19.88;7.05;;;;;;;22.14;63.77;96745.19;10420393;28;20073;-26
2023/09/10 13:50:42;;;;;;;17.17;7.57;;;;;;;22.16;63.94;96751.13;10422750;28;20044;-25
2023/09/10 13:55:42;;;;;;;17.03;6.50;;;;;;;22.20;63.99;96750.22;10418209;28;20550;-25
2023/09/10 14:00:42;;;;;;;16.10;7.00;;;;;;;22.21;63.89;96751.91;10419533;28;20036;-26
2023/09/10 14:05:43;;;;;;;19.50;7.47;;;;;;;22.22;63.79;96753.59;10429308;28;20390;-26
2023/09/10 14:10:43;;;;;;;20.43;7.50;;;;;;;22.25;63.96;96742.50;10422739;28;20044;-26
2023/09/10 14:15:43;;;;;;;13.30;6.33;;;;;;;22.21;63.85;96736.59;10426128;28;20094;-25
2023/09/10 14:20:44;;;;;;;10.87;5.57;;;;;;;22.24;63.96;96728.91;10434505;28;20113;-26
2023/09/10 14:25:49;;;;;;;10.17;6.23;;;;;;;22.28;63.70;96735.66;10418600;28;20300;-25
2023/09/10 14:30:52;;;;;;;12.82;6.57;;;;;;;22.29;63.70;96722.03;10420113;28;20366;-26
2023/09/10 14:35:55;;;;;;;11.48;5.80;;;;;;;22.27;63.72;96731.41;10418920;28;20066;-26
2023/09/10 14:40:55;;;;;;;12.40;6.68;;;;;;;22.25;63.64;96725.50;10416783;28;20564;-26
2023/09/10 14:45:56;;;;;;;18.63;6.67;;;;;;;22.24;63.49;96725.53;10417584;28;20037;-25
2023/09/10 14:50:57;;;;;;;14.18;5.97;;;;;;;22.22;63.63;96728.09;10433222;28;20480;-26
2023/09/10 14:55:57;;;;;;;10.50;6.73;;;;;;;22.23;63.55;96716.19;10409594;28;20037;-26
2023/09/10 15:00:57;;;;;;;15.60;8.50;;;;;;;22.27;64.99;96726.31;10412013;28;20109;-26
2023/09/10 15:05:58;;;;;;;19.53;8.53;;;;;;;22.27;65.15;96721.22;10423779;28;20045;-26
2023/09/10 15:10:58;;;;;;;11.00;7.50;;;;;;;22.24;64.79;96718.69;10419749;28;20037;-26
2023/09/10 15:16:00;;;;;;;19.25;7.78;;;;;;;22.23;65.02;96718.75;10420152;28;20096;-26
2023/09/10 15:21:02;;;;;;;21.65;7.45;;;;;;;22.15;64.96;96706.06;10419370;28;20057;-26
2023/09/10 15:26:03;;;;;;;13.82;7.20;;;;;;;22.21;65.26;96713.66;10424156;28;20495;-26
2023/09/10 15:31:03;;;;;;;11.33;5.73;;;;;;;22.20;65.00;96709.41;10421526;28;20033;-26
2023/09/10 15:36:04;;;;;;;11.13;6.15;;;;;;;22.21;65.14;96700.03;10420799;28;20048;-26
2023/09/10 15:41:04;;;;;;;12.30;6.60;;;;;;;22.17;65.20;96693.31;10432149;28;20041;-26
2023/09/10 15:46:05;;;;;;;11.27;6.78;;;;;;;22.18;64.96;96700.94;10416370;28;20038;-26
2023/09/10 15:51:05;;;;;;;9.53;5.67;;;;;;;22.19;65.02;96692.44;10415576;28;20492;-26
2023/09/10 15:56:06;;;;;;;13.10;6.50;;;;;;;22.18;65.01;96685.66;10409697;28;20526;-26
2023/09/10 16:01:06;;;;;;;9.70;6.07;;;;;;;22.18;64.91;96690.75;10429634;28;20349;-26
2023/09/10 16:06:06;;;;;;;8.33;6.13;;;;;;;22.19;64.90;96689.88;10422982;28;20025;-26
2023/09/10 16:11:08;;;;;;;8.63;6.07;;;;;;;22.19;65.04;96691.56;10414838;28;20156;-25
2023/09/10 16:16:09;;;;;;;8.35;5.80;;;;;;;22.18;65.12;96685.66;10415630;28;20048;-26
2023/09/10 16:21:09;;;;;;;8.63;5.88;;;;;;;22.17;65.00;96688.22;10427031;28;20040;-30
2023/09/10 16:26:09;;;;;;;6.70;5.40;;;;;;;22.19;65.02;96691.56;10409893;28;20095;-26
2023/09/10 16:31:10;;;;;;;7.53;5.53;;;;;;;22.19;65.11;96691.56;10409771;28;20326;-26
2023/09/10 16:36:10;;;;;;;8.07;4.95;;;;;;;22.18;65.07;96690.75;10417912;28;20506;-26
2023/09/10 16:41:11;;;;;;;7.67;5.40;;;;;;;22.18;64.79;96695.84;10410288;28;20064;-26
2023/09/10 16:46:11;;;;;;;5.77;5.27;;;;;;;22.18;64.87;96698.41;10418803;28;20417;-26
2023/09/10 16:51:12;;;;;;;7.73;4.87;;;;;;;22.17;64.78;96699.28;10423416;28;20454;-26
2023/09/10 16:56:12;;;;;;;10.27;5.27;;;;;;;22.28;66.33;96699.94;10426685;28;20037;-25
2023/09/10 17:01:17;;;;;;;11.40;5.03;;;;;;;22.31;65.21;96697.34;10425978;28;20075;-26
2023/09/10 17:06:18;;;;;;;14.40;5.17;;;;;;;22.32;65.15;96701.56;10426713;28;20045;-28
2023/09/10 17:11:19;;;;;;;13.40;4.80;;;;;;;22.31;65.09;96694.78;10423237;28;20041;-26
2023/09/10 17:16:19;;;;;;;9.80;5.00;;;;;;;22.30;64.68;96695.66;10429435;28;20037;-26
2023/09/10 17:21:20;;;;;;;6.20;4.43;;;;;;;22.31;64.42;96696.50;10419191;28;20036;-26
2023/09/10 17:26:20;;;;;;;9.77;4.90;;;;;;;22.28;64.48;96694.84;10418283;28;20045;-26
2023/09/10 17:31:21;;;;;;;8.20;4.35;;;;;;;22.29;64.34;96699.06;10415525;28;20487;-26
2023/09/10 17:36:21;;;;;;;5.32;4.35;;;;;;;22.30;64.25;96689.72;10428002;28;20041;-26
2023/09/10 17:41:21;;;;;;;5.07;3.93;;;;;;;22.28;64.11;96694.84;10412135;28;20120;-26
2023/09/10 17:46:25;;;;;;;6.85;4.47;;;;;;;22.27;64.15;96705.91;10411743;28;20663;-26
2023/09/10 17:51:25;;;;;;;7.85;4.03;;;;;;;22.28;64.39;96707.59;10423555;28;20108;-26
2023/09/10 17:56:25;;;;;;;6.60;3.53;;;;;;;22.28;63.99;96715.25;10423122;28;20037;-26
2023/09/10 18:01:30;;;;;;;7.20;3.90;;;;;;;22.26;63.91;96719.53;10422761;28;20284;-26
2023/09/10 18:06:31;;;;;;;7.57;4.25;;;;;;;22.30;66.00;96726.25;10425659;28;20296;-26
2023/09/10 18:11:31;;;;;;;6.70;4.18;;;;;;;22.32;65.27;96728.81;10430134;28;20457;-26
2023/09/10 18:16:31;;;;;;;6.10;4.07;;;;;;;22.31;64.83;96740.69;10424054;28;20038;-25
2023/09/10 18:21:32;;;;;;;11.83;3.60;;;;;;;22.33;64.67;96746.63;10420751;28;20132;-26
2023/09/10 18:26:32;;;;;;;8.90;3.58;;;;;;;22.34;64.76;96748.31;10420775;28;20045;-26
2023/09/10 18:31:33;;;;;;;13.97;5.00;;;;;;;22.37;65.05;96753.38;10417969;28;20044;-26
2023/09/10 18:36:33;;;;;;;9.30;3.70;;;;;;;22.38;64.54;96764.41;10405543;28;20125;-26
2023/09/10 18:41:33;;;;;;;8.77;3.63;;;;;;;22.37;64.44;96772.94;10413794;28;20661;-26
2023/09/10 18:46:35;;;;;;;5.40;3.90;;;;;;;22.32;64.38;96762.78;10420291;28;20303;-26
2023/09/10 18:52:05;;;;;;;4.03;3.38;;;;;;;22.36;64.30;96769.56;10424267;28;20033;-26
2023/09/10 18:57:07;;;;;;;4.30;3.42;;;;;;;22.36;64.12;96774.66;10421218;28;20030;-26
2023/09/10 19:02:07;;;;;;;3.63;3.20;;;;;;;22.37;64.01;96771.22;10423610;28;20496;-26
2023/09/10 19:07:10;;;;;;;4.15;3.30;;;;;;;22.32;64.22;96779.81;10421006;28;20041;-26
2023/09/10 19:12:10;;;;;;;5.25;3.22;;;;;;;22.36;63.95;96786.53;10404542;28;20190;-26
2023/09/10 19:17:10;;;;;;;5.13;3.10;;;;;;;22.34;64.20;96770.44;10409800;28;20116;-25
2023/09/10 19:22:11;;;;;;;4.00;3.10;;;;;;;22.34;63.67;96778.94;10422771;28;20124;-26
2023/09/10 19:27:12;;;;;;;5.53;3.23;;;;;;;22.35;63.86;96779.75;10421835;28;20372;-26
2023/09/10 19:32:13;;;;;;;3.30;2.88;;;;;;;22.34;64.20;96778.94;10426444;28;20040;-26
2023/09/10 19:37:13;;;;;;;4.53;3.73;;;;;;;22.35;63.75;96783.16;10415202;28;20025;-26
2023/09/10 19:42:13;;;;;;;3.00;2.77;;;;;;;22.34;63.72;96778.94;10421164;28;20287;-26
2023/09/10 19:47:14;;;;;;;6.73;3.50;;;;;;;22.34;63.90;96783.19;10408678;28;20033;-26
2023/09/10 19:52:14;;;;;;;10.47;3.17;;;;;;;22.33;63.77;96787.44;10405256;28;20033;-26
2023/09/10 19:57:14;;;;;;;3.13;2.80;;;;;;;22.33;63.91;96782.31;10412192;28;20033;-27
2023/09/10 20:02:15;;;;;;;3.37;3.07;;;;;;;22.31;63.85;96778.97;10411955;28;20041;-26
2023/09/10 20:07:15;;;;;;;6.40;3.17;;;;;;;22.31;63.75;96784.06;10423576;28;20703;-26
2023/09/10 20:12:18;;;;;;;2.72;2.50;;;;;;;22.32;64.03;96775.53;10404743;28;20657;-26
2023/09/10 20:17:19;;;;;;;3.17;2.88;;;;;;;22.32;63.98;96775.53;10420421;28;20021;-26
2023/09/10 20:22:19;;;;;;;2.97;2.60;;;;;;;22.31;63.71;96773.84;10436496;28;20410;-26
2023/09/10 20:27:19;;;;;;;3.17;2.80;;;;;;;22.32;63.76;96770.44;10419997;28;20037;-26
2023/09/10 20:32:20;;;;;;;3.93;2.50;;;;;;;22.30;63.56;96772.19;10420642;28;20047;-25
2023/09/10 20:37:20;;;;;;;6.03;2.80;;;;;;;22.31;64.25;96768.75;10429251;28;20090;-26
2023/09/10 20:42:21;;;;;;;6.75;4.65;;;;;;;22.39;65.97;96771.22;10431219;28;20482;-26
2023/09/10 20:47:21;;;;;;;5.88;4.13;;;;;;;22.37;64.60;96778.88;10423125;28;20033;-26
2023/09/10 20:52:22;;;;;;;4.47;3.13;;;;;;;22.33;64.14;96761.91;10423650;28;20059;-26
2023/09/10 20:57:22;;;;;;;4.33;2.30;;;;;;;22.33;63.59;96766.19;10425034;28;20037;-27
2023/09/10 21:02:23;;;;;;;5.30;2.60;;;;;;;22.34;64.34;96763.63;10420122;28;20029;-26
2023/09/10 21:07:23;;;;;;;8.73;4.63;;;;;;;22.34;64.02;96762.78;10417837;28;20478;-26
2023/09/10 21:12:23;;;;;;;7.63;4.63;;;;;;;22.33;63.90;96767.03;10415513;28;20272;-27
2023/09/10 21:17:24;;;;;;;5.07;4.17;;;;;;;22.33;64.32;96763.66;10413718;28;20025;-25
2023/09/10 21:22:24;;;;;;;5.87;4.87;;;;;;;22.31;63.68;96763.66;10429456;28;20033;-26
2023/09/10 21:27:24;;;;;;;6.13;2.67;;;;;;;22.31;63.40;96768.75;10428889;28;20021;-26
2023/09/10 21:32:25;;;;;;;4.07;2.70;;;;;;;22.30;63.50;96761.97;10428669;28;20033;-26
2023/09/10 21:37:25;;;;;;;3.67;2.90;;;;;;;22.32;63.40;96761.97;10428373;28;20025;-27
2023/09/10 21:42:25;;;;;;;3.83;3.00;;;;;;;22.32;63.09;96761.97;10424576;28;20033;-26
2023/09/10 21:47:26;;;;;;;2.63;2.43;;;;;;;22.30;63.12;96761.97;10419265;28;20112;-27
2023/09/10 21:52:26;;;;;;;5.70;2.90;;;;;;;22.29;63.08;96756.88;10413525;28;20337;-27
2023/09/10 21:57:27;;;;;;;4.63;4.03;;;;;;;22.29;63.27;96755.19;10412318;28;20506;-26
2023/09/10 22:02:27;;;;;;;5.37;4.37;;;;;;;22.30;63.25;96761.97;10411425;28;20038;-26
2023/09/10 22:07:27;;;;;;;5.60;4.07;;;;;;;22.31;63.81;96756.00;10414971;28;20495;-26
2023/09/10 22:12:28;;;;;;;6.70;5.10;;;;;;;22.33;64.33;96751.72;10421350;28;20468;-27
2023/09/10 22:17:28;;;;;;;9.43;6.63;;;;;;;22.32;63.88;96750.03;10414402;28;20280;-25
2023/09/10 22:22:30;;;;;;;7.83;4.47;;;;;;;22.29;63.00;96752.63;10419352;28;20112;-26
2023/09/10 22:27:32;;;;;;;6.45;3.83;;;;;;;22.27;63.16;96740.78;10410674;28;20040;-26
2023/09/10 22:32:32;;;;;;;6.57;3.95;;;;;;;22.29;62.94;96745.00;10427136;28;20072;-26
2023/09/10 22:37:32;;;;;;;3.77;3.43;;;;;;;22.28;62.92;96743.31;10432182;28;20655;-26
2023/09/10 22:42:33;;;;;;;3.50;2.77;;;;;;;22.27;63.05;96741.63;10434693;28;20704;-26
2023/09/10 22:47:33;;;;;;;2.87;2.47;;;;;;;22.27;62.78;96741.63;10411591;28;20037;-26
2023/09/10 22:52:33;;;;;;;2.73;2.53;;;;;;;22.28;62.80;96737.34;10423494;28;20128;-26
2023/09/10 22:57:34;;;;;;;7.70;3.97;;;;;;;22.27;62.73;96746.72;10425885;28;20654;-25
2023/09/10 23:02:34;;;;;;;6.63;3.97;;;;;;;22.23;62.73;96734.88;10415847;28;20403;-25
2023/09/10 23:07:34;;;;;;;6.73;5.60;;;;;;;22.27;62.76;96745.88;10422827;28;20541;-26
2023/09/10 23:12:35;;;;;;;6.63;3.20;;;;;;;22.27;62.75;96754.38;10416975;28;20284;-25
2023/09/10 23:17:35;;;;;;;4.57;3.27;;;;;;;22.24;62.67;96739.09;10419440;28;20087;-26
2023/09/10 23:22:38;;;;;;;3.50;2.73;;;;;;;22.27;62.76;96736.53;10410051;28;20042;-26